createdAt,value
2023-08-01T00:00:29.578Z,99409.97
2023-08-01T00:02:58.285Z,99405.59
2023-08-01T00:05:26.108Z,99405.53
2023-08-01T00:07:54.101Z,99409.78
2023-08-01T00:10:21.721Z,99407.25
2023-08-01T00:12:49.346Z,99398.53
2023-08-01T00:15:17.010Z,99399.75
2023-08-01T00:17:44.638Z,99401.00
2023-08-01T00:20:12.414Z,99400.34
2023-08-01T00:22:40.554Z,99395.16
2023-08-01T00:25:09.083Z,99394.72
2023-08-01T00:27:40.425Z,99395.31
2023-08-01T00:30:09.770Z,99399.59
2023-08-01T00:32:38.423Z,99395.63
2023-08-01T00:35:06.565Z,99409.28
2023-08-01T00:37:34.142Z,99407.22
2023-08-01T00:40:02.232Z,99412.03
2023-08-01T00:42:29.840Z,99416.00
2023-08-01T00:44:59.033Z,99419.94
2023-08-01T00:47:27.003Z,99421.41
2023-08-01T00:49:54.810Z,99416.66
2023-08-01T00:52:23.414Z,99417.69
2023-08-01T00:54:51.618Z,99431.97
2023-08-01T00:57:19.319Z,99432.63
2023-08-01T00:59:46.997Z,99434.72
2023-08-01T01:02:14.694Z,99433.34
2023-08-01T01:04:42.505Z,99440.81
2023-08-01T01:07:10.127Z,99435.69
2023-08-01T01:09:37.793Z,99441.53
2023-08-01T01:12:05.696Z,99443.03
2023-08-01T01:14:33.265Z,99436.59
2023-08-01T01:17:01.081Z,99440.94
2023-08-01T01:19:28.710Z,99444.47
2023-08-01T01:21:57.331Z,99440.94
2023-08-01T01:24:27.173Z,99439.72
2023-08-01T01:26:56.472Z,99443.91
2023-08-01T01:29:24.835Z,99440.16
2023-08-01T01:31:53.617Z,99439.97
2023-08-01T01:34:21.382Z,99442.66
2023-08-01T01:36:48.946Z,99445.34
2023-08-01T01:39:16.577Z,99447.84
2023-08-01T01:41:44.139Z,99447.66
2023-08-01T01:44:11.829Z,99452.03
2023-08-01T01:46:40.142Z,99449.13
2023-08-01T01:49:07.956Z,99445.44
2023-08-01T01:51:35.759Z,99447.06
2023-08-01T01:54:03.389Z,99450.81
2023-08-01T01:56:31.115Z,99458.03
2023-08-01T01:58:58.854Z,99458.66
2023-08-01T02:01:26.446Z,99457.00
2023-08-01T02:03:54.018Z,99457.19
2023-08-01T02:06:21.597Z,99457.19
2023-08-01T02:08:49.200Z,99460.72
2023-08-01T02:11:16.880Z,99457.19
2023-08-01T02:13:44.452Z,99459.88
2023-08-01T02:16:12.316Z,99459.06
2023-08-01T02:18:40.076Z,99457.19
2023-08-01T02:21:07.694Z,99459.72
2023-08-01T02:23:37.660Z,99451.81
2023-08-01T02:26:05.748Z,99455.34
2023-08-01T02:28:33.379Z,99456.38
2023-08-01T02:31:01.071Z,99463.78
2023-08-01T02:33:28.670Z,99461.69
2023-08-01T02:35:56.412Z,99462.09
2023-08-01T02:38:24.033Z,99458.13
2023-08-01T02:40:51.665Z,99464.53
2023-08-01T02:43:19.249Z,99467.63
2023-08-01T02:45:46.922Z,99468.97
2023-08-01T02:48:14.633Z,99471.88
2023-08-01T02:50:42.462Z,99473.09
2023-08-01T02:53:10.375Z,99466.44
2023-08-01T02:55:38.155Z,99468.84
2023-08-01T02:58:05.796Z,99472.97
2023-08-01T03:00:33.472Z,99471.69
2023-08-01T03:03:01.228Z,99477.44
2023-08-01T03:05:28.978Z,99479.31
2023-08-01T03:07:56.731Z,99483.00
2023-08-01T03:12:58.354Z,99483.66
2023-08-01T03:15:25.944Z,99485.50
2023-08-01T03:17:53.608Z,99483.81
2023-08-01T03:20:21.278Z,99484.84
2023-08-01T03:22:48.875Z,99474.31
2023-08-01T03:25:16.501Z,99480.69
2023-08-01T03:27:44.182Z,99483.38
2023-08-01T03:30:12.172Z,99483.38
2023-08-01T03:32:41.212Z,99481.50
2023-08-01T03:35:09.764Z,99488.59
2023-08-01T03:37:37.397Z,99488.59
2023-08-01T03:40:06.712Z,99478.66
2023-08-01T03:42:34.290Z,99487.94
2023-08-01T03:45:02.162Z,99483.59
2023-08-01T03:47:31.796Z,99487.47
2023-08-01T03:49:59.928Z,99480.63
2023-08-01T03:52:27.927Z,99493.44
2023-08-01T03:54:56.790Z,99494.28
2023-08-01T03:57:24.863Z,99497.78
2023-08-01T03:59:52.476Z,99504.81
2023-08-01T04:02:20.118Z,99505.25
2023-08-01T04:04:47.776Z,99505.91
2023-08-01T04:07:15.353Z,99507.41
2023-08-01T04:09:43.180Z,99511.56
2023-08-01T04:12:10.878Z,99509.72
2023-08-01T04:14:38.488Z,99509.34
2023-08-01T04:17:06.258Z,99518.03
2023-08-01T04:19:33.914Z,99517.84
2023-08-01T04:22:01.509Z,99530.09
2023-08-01T04:24:30.904Z,99534.44
2023-08-01T04:26:58.522Z,99534.44
2023-08-01T04:29:26.230Z,99538.97
2023-08-01T04:31:53.829Z,99539.81
2023-08-01T04:34:21.450Z,99541.66
2023-08-01T04:36:49.103Z,99544.38
2023-08-01T04:39:16.682Z,99541.47
2023-08-01T04:41:44.234Z,99542.94
2023-08-01T04:44:11.923Z,99546.47
2023-08-01T04:46:39.841Z,99549.97
2023-08-01T04:49:07.707Z,99550.81
2023-08-01T04:51:35.491Z,99556.03
2023-08-01T04:54:03.116Z,99558.13
2023-08-01T04:56:30.752Z,99556.28
2023-08-01T04:58:58.360Z,99564.97
2023-08-01T05:01:25.988Z,99561.25
2023-08-01T05:03:53.974Z,99565.44
2023-08-01T05:06:21.585Z,99568.81
2023-08-01T05:08:49.166Z,99571.28
2023-08-01T05:11:16.789Z,99577.72
2023-08-01T05:13:44.431Z,99569.47
2023-08-01T05:16:12.108Z,99568.59
2023-08-01T05:18:39.833Z,99572.78
2023-08-01T05:21:07.471Z,99574.25
2023-08-01T05:23:35.097Z,99579.25
2023-08-01T05:26:02.716Z,99570.59
2023-08-01T05:28:30.464Z,99576.41
2023-08-01T05:30:58.253Z,99571.69
2023-08-01T05:33:26.263Z,99575.03
2023-08-01T05:35:53.929Z,99586.03
2023-08-01T05:38:21.479Z,99577.78
2023-08-01T05:40:49.113Z,99577.19
2023-08-01T05:43:17.322Z,99590.28
2023-08-01T05:45:44.940Z,99597.31
2023-08-01T05:48:14.855Z,99594.81
2023-08-01T05:50:42.419Z,99596.94
2023-08-01T05:53:10.143Z,99600.06
2023-08-01T05:55:37.842Z,99608.41
2023-08-01T05:58:05.474Z,99607.38
2023-08-01T06:00:33.100Z,99615.28
2023-08-01T06:03:01.966Z,99613.19
2023-08-01T06:05:29.716Z,99623.97
2023-08-01T06:07:57.295Z,99633.34
2023-08-01T06:10:25.286Z,99635.00
2023-08-01T06:12:52.875Z,99636.88
2023-08-01T06:15:20.478Z,99638.34
2023-08-01T06:17:48.125Z,99636.94
2023-08-01T06:20:15.849Z,99644.81
2023-08-01T06:22:44.070Z,99651.00
2023-08-01T06:25:11.765Z,99655.41
2023-08-01T06:27:39.339Z,99660.56
2023-08-01T06:30:07.582Z,99659.56
2023-08-01T06:32:35.344Z,99659.34
2023-08-01T06:35:02.991Z,99668.09
2023-08-01T06:37:30.597Z,99670.78
2023-08-01T06:40:00.599Z,99675.97
2023-08-01T06:42:28.224Z,99673.91
2023-08-01T06:44:55.878Z,99677.88
2023-08-01T06:47:23.604Z,99673.97
2023-08-01T06:49:51.236Z,99681.28
2023-08-01T06:52:18.877Z,99690.44
2023-08-01T06:54:46.567Z,99695.88
2023-08-01T06:57:14.228Z,99694.47
2023-08-01T06:59:41.869Z,99701.56
2023-08-01T07:02:09.936Z,99700.72
2023-08-01T07:04:38.832Z,99705.66
2023-08-01T07:07:06.623Z,99700.44
2023-08-01T07:09:35.770Z,99699.44
2023-08-01T07:12:03.617Z,99698.56
2023-08-01T07:14:31.661Z,99699.44
2023-08-01T07:16:59.696Z,99706.13
2023-08-01T07:19:27.365Z,99710.09
2023-08-01T07:21:55.871Z,99714.06
2023-08-01T07:24:26.184Z,99719.91
2023-08-01T07:26:55.848Z,99720.53
2023-08-01T07:29:23.456Z,99724.06
2023-08-01T07:31:51.182Z,99726.97
2023-08-01T07:34:18.797Z,99724.44
2023-08-01T07:36:49.876Z,99728.44
2023-08-01T07:39:18.049Z,99729.50
2023-08-01T07:41:45.730Z,99728.53
2023-08-01T07:44:13.359Z,99730.25
2023-08-01T07:46:41.140Z,99729.25
2023-08-01T07:49:09.004Z,99726.63
2023-08-01T07:51:37.411Z,99726.50
2023-08-01T07:54:05.091Z,99715.34
2023-08-01T07:56:32.779Z,99721.19
2023-08-01T07:59:00.439Z,99733.94
2023-08-01T08:01:28.186Z,99736.53
2023-08-01T08:03:55.941Z,99723.25
2023-08-01T08:06:25.058Z,99723.72
2023-08-01T08:08:52.752Z,99724.78
2023-08-01T08:11:20.331Z,99720.69
2023-08-01T08:13:47.977Z,99726.53
2023-08-01T08:16:15.991Z,99720.47
2023-08-01T08:18:43.689Z,99725.25
2023-08-01T08:21:11.399Z,99728.84
2023-08-01T08:23:39.782Z,99730.94
2023-08-01T08:26:08.257Z,99734.03
2023-08-01T08:28:35.973Z,99736.94
2023-08-01T08:31:04.700Z,99738.19
2023-08-01T08:33:32.749Z,99739.66
2023-08-01T08:36:00.473Z,99748.19
2023-08-01T08:38:30.304Z,99743.63
2023-08-01T08:41:15.381Z,99734.88
2023-08-01T08:43:43.371Z,99740.72
2023-08-01T08:46:13.442Z,99745.06
2023-08-01T08:48:41.954Z,99755.88
2023-08-01T08:51:10.354Z,99755.06
2023-08-01T08:53:38.812Z,99747.13
2023-08-01T08:56:09.257Z,99745.72
2023-08-01T08:58:42.545Z,99749.44
2023-08-01T09:01:10.762Z,99738.81
2023-08-01T09:03:38.492Z,99756.50
2023-08-01T09:06:12.303Z,99756.94
2023-08-01T09:08:41.792Z,99756.53
2023-08-01T09:11:09.746Z,99760.69
2023-08-01T09:13:37.618Z,99763.97
2023-08-01T09:16:08.111Z,99752.09
2023-08-01T09:18:35.808Z,99753.94
2023-08-01T09:21:04.490Z,99755.38
2023-08-01T09:23:32.285Z,99755.94
2023-08-01T09:26:00.602Z,99757.78
2023-08-01T09:28:28.883Z,99754.34
2023-08-01T09:30:58.854Z,99758.88
2023-08-01T09:33:26.670Z,99760.31
2023-08-01T09:35:54.544Z,99758.66
2023-08-01T09:38:22.410Z,99757.41
2023-08-01T09:40:51.271Z,99765.03
2023-08-01T09:43:19.046Z,99755.72
2023-08-01T09:45:56.200Z,99769.63
2023-08-01T09:48:27.035Z,99763.38
2023-08-01T09:51:13.536Z,99768.53
2023-08-01T09:53:55.689Z,99773.91
2023-08-01T09:56:30.086Z,99774.00
2023-08-01T09:59:00.890Z,99777.16
2023-08-01T10:01:29.346Z,99780.25
2023-08-01T10:03:58.129Z,99780.84
2023-08-01T10:06:30.089Z,99783.31
2023-08-01T10:08:59.302Z,99784.53
2023-08-01T10:11:28.348Z,99798.03
2023-08-01T10:13:57.190Z,99796.41
2023-08-01T10:16:25.746Z,99801.53
2023-08-01T10:18:54.849Z,99801.03
2023-08-01T10:21:23.984Z,99800.88
2023-08-01T10:23:51.954Z,99805.25
2023-08-01T10:26:19.725Z,99799.16
2023-08-01T10:28:53.083Z,99798.84
2023-08-01T10:31:22.520Z,99797.97
2023-08-01T10:33:51.433Z,99801.41
2023-08-01T10:36:24.665Z,99804.22
2023-08-01T10:38:55.101Z,99804.13
2023-08-01T10:41:34.027Z,99798.00
2023-08-01T10:44:16.291Z,99803.72
2023-08-01T10:46:51.380Z,99800.47
2023-08-01T10:49:20.751Z,99796.81
2023-08-01T10:51:48.613Z,99804.75
2023-08-01T10:54:24.299Z,99795.38
2023-08-01T10:56:54.223Z,99794.91
2023-08-01T10:59:23.588Z,99804.84
2023-08-01T11:01:59.915Z,99801.56
2023-08-01T11:04:27.593Z,99795.31
2023-08-01T11:06:59.595Z,99796.13
2023-08-01T11:09:29.290Z,99803.56
2023-08-01T11:12:02.117Z,99803.69
2023-08-01T11:14:30.767Z,99800.75
2023-08-01T11:17:01.520Z,99803.03
2023-08-01T11:19:30.804Z,99792.63
2023-08-01T11:21:58.953Z,99794.47
2023-08-01T11:24:27.748Z,99802.47
2023-08-01T11:26:55.936Z,99798.63
2023-08-01T11:29:23.595Z,99802.81
2023-08-01T11:31:56.369Z,99809.22
2023-08-01T11:34:24.865Z,99801.16
2023-08-01T11:36:52.822Z,99810.63
2023-08-01T11:39:20.776Z,99814.78
2023-08-01T11:41:48.364Z,99820.78
2023-08-01T11:44:16.037Z,99814.78
2023-08-01T11:46:44.144Z,99815.50
2023-08-01T11:49:15.475Z,99829.47
2023-08-01T11:51:45.521Z,99827.94
2023-08-01T11:54:14.592Z,99828.84
2023-08-01T11:56:43.802Z,99818.09
2023-08-01T11:59:13.964Z,99822.34
2023-08-01T12:01:46.621Z,99825.47
2023-08-01T12:04:26.218Z,99826.06
2023-08-01T12:06:53.926Z,99829.97
2023-08-01T12:09:21.918Z,99828.25
2023-08-01T12:11:59.932Z,99828.16
2023-08-01T12:14:29.377Z,99821.75
2023-08-01T12:16:57.082Z,99823.28
2023-08-01T12:19:24.758Z,99817.88
2023-08-01T12:21:52.326Z,99820.16
2023-08-01T12:24:19.941Z,99822.25
2023-08-01T12:26:47.545Z,99823.16
2023-08-01T12:29:15.115Z,99826.34
2023-08-01T12:31:42.808Z,99815.19
2023-08-01T12:34:10.538Z,99816.34
2023-08-01T12:36:38.329Z,99822.03
2023-08-01T12:39:11.708Z,99824.19
2023-08-01T12:41:39.607Z,99812.34
2023-08-01T12:44:07.273Z,99805.47
2023-08-01T12:46:34.981Z,99802.78
2023-08-01T12:49:02.593Z,99803.22
2023-08-01T12:51:30.268Z,99803.22
2023-08-01T12:53:57.839Z,99799.00
2023-08-01T12:56:25.592Z,99803.59
2023-08-01T12:58:53.147Z,99798.19
2023-08-01T13:01:20.830Z,99803.22
2023-08-01T13:03:48.462Z,99800.06
2023-08-01T13:06:16.150Z,99800.25
2023-08-01T13:08:43.811Z,99801.88
2023-08-01T13:11:13.978Z,99795.00
2023-08-01T13:13:43.157Z,99793.91
2023-08-01T13:16:11.127Z,99801.34
2023-08-01T13:18:44.654Z,99797.06
2023-08-01T13:21:13.633Z,99793.28
2023-08-01T13:23:41.423Z,99796.81
2023-08-01T13:26:09.496Z,99787.91
2023-08-01T13:28:37.160Z,99794.38
2023-08-01T13:31:05.155Z,99789.41
2023-08-01T13:33:32.884Z,99796.63
2023-08-01T13:36:00.662Z,99787.47
2023-08-01T13:38:29.513Z,99789.88
2023-08-01T13:41:01.718Z,99790.44
2023-08-01T13:43:29.372Z,99786.53
2023-08-01T13:45:57.493Z,99780.91
2023-08-01T13:48:25.419Z,99784.03
2023-08-01T13:50:53.007Z,99779.16
2023-08-01T13:53:20.691Z,99786.47
2023-08-01T13:55:48.325Z,99782.97
2023-08-01T13:58:15.926Z,99778.81
2023-08-01T14:00:43.945Z,99777.81
2023-08-01T14:03:12.005Z,99769.28
2023-08-01T14:05:39.678Z,99765.38
2023-08-01T14:08:07.338Z,99766.63
2023-08-01T14:10:35.077Z,99760.16
2023-08-01T14:13:02.732Z,99764.47
2023-08-01T14:15:30.353Z,99760.47
2023-08-01T14:17:58.040Z,99755.69
2023-08-01T14:20:25.687Z,99758.53
2023-08-01T14:22:53.643Z,99761.66
2023-08-01T14:25:21.274Z,99763.50
2023-08-01T14:27:48.953Z,99756.47
2023-08-01T14:30:16.615Z,99759.66
2023-08-01T14:32:44.406Z,99754.56
2023-08-01T14:35:13.102Z,99762.28
2023-08-01T14:37:43.568Z,99748.59
2023-08-01T14:40:11.488Z,99744.00
2023-08-01T14:42:41.487Z,99748.88
2023-08-01T14:45:10.833Z,99743.44
2023-08-01T14:47:39.146Z,99737.34
2023-08-01T14:50:07.721Z,99737.47
2023-08-01T14:52:35.354Z,99741.44
2023-08-01T14:55:03.174Z,99732.00
2023-08-01T14:57:30.840Z,99729.38
2023-08-01T14:59:58.858Z,99730.91
2023-08-01T15:02:27.345Z,99721.69
2023-08-01T15:04:59.170Z,99721.75
2023-08-01T15:07:27.453Z,99729.66
2023-08-01T15:09:57.144Z,99728.06
2023-08-01T15:12:25.694Z,99721.88
2023-08-01T15:14:57.680Z,99711.84
2023-08-01T15:17:25.916Z,99716.94
2023-08-01T15:19:54.868Z,99708.09
2023-08-01T15:22:22.704Z,99707.94
2023-08-01T15:24:50.358Z,99715.53
2023-08-01T15:27:18.148Z,99708.03
2023-08-01T15:29:47.866Z,99714.63
2023-08-01T15:32:15.633Z,99703.22
2023-08-01T15:34:43.252Z,99705.41
2023-08-01T15:37:11.250Z,99713.53
2023-08-01T15:39:38.955Z,99710.91
2023-08-01T15:42:06.842Z,99701.75
2023-08-01T15:44:34.426Z,99702.00
2023-08-01T15:47:02.243Z,99701.16
2023-08-01T15:49:29.789Z,99689.00
2023-08-01T15:51:57.439Z,99688.72
2023-08-01T15:54:25.032Z,99688.91
2023-08-01T15:56:54.318Z,99687.63
2023-08-01T15:59:22.033Z,99690.50
2023-08-01T16:01:50.834Z,99686.28
2023-08-01T16:04:18.665Z,99693.69
2023-08-01T16:06:46.502Z,99684.84
2023-08-01T16:09:14.253Z,99686.97
2023-08-01T16:11:41.838Z,99689.53
2023-08-01T16:14:09.927Z,99684.44
2023-08-01T16:16:37.619Z,99679.28
2023-08-01T16:19:05.182Z,99676.00
2023-08-01T16:21:32.769Z,99668.50
2023-08-01T16:24:02.375Z,99674.38
2023-08-01T16:26:30.122Z,99668.97
2023-08-01T16:28:57.729Z,99670.03
2023-08-01T16:31:25.810Z,99663.78
2023-08-01T16:33:53.440Z,99661.69
2023-08-01T16:36:21.050Z,99655.44
2023-08-01T16:38:48.654Z,99653.69
2023-08-01T16:41:22.500Z,99666.34
2023-08-01T16:43:50.343Z,99667.31
2023-08-01T16:46:18.031Z,99663.66
2023-08-01T16:48:45.747Z,99659.34
2023-08-01T16:51:13.681Z,99660.56
2023-08-01T16:53:41.357Z,99660.56
2023-08-01T16:56:08.925Z,99651.59
2023-08-01T16:58:36.565Z,99654.34
2023-08-01T17:01:04.491Z,99651.94
2023-08-01T17:03:32.482Z,99642.22
2023-08-01T17:06:00.361Z,99640.78
2023-08-01T17:08:28.067Z,99644.00
2023-08-01T17:10:55.918Z,99634.91
2023-08-01T17:13:24.314Z,99638.88
2023-08-01T17:15:52.020Z,99640.19
2023-08-01T17:18:21.803Z,99632.53
2023-08-01T17:20:49.579Z,99638.00
2023-08-01T17:23:17.216Z,99627.19
2023-08-01T17:25:45.208Z,99625.16
2023-08-01T17:28:12.896Z,99620.22
2023-08-01T17:30:40.720Z,99616.72
2023-08-01T17:33:10.268Z,99604.81
2023-08-01T17:35:38.716Z,99610.44
2023-08-01T17:38:06.311Z,99609.63
2023-08-01T17:40:33.981Z,99594.84
2023-08-01T17:43:02.324Z,99597.59
2023-08-01T17:45:30.863Z,99589.09
2023-08-01T17:47:59.085Z,99580.34
2023-08-01T17:50:27.026Z,99584.09
2023-08-01T17:52:54.704Z,99578.88
2023-08-01T17:55:22.366Z,99582.47
2023-08-01T17:57:50.529Z,99573.34
2023-08-01T18:00:19.228Z,99574.81
2023-08-01T18:02:47.034Z,99574.19
2023-08-01T18:05:15.900Z,99576.28
2023-08-01T18:07:44.992Z,99559.88
2023-08-01T18:10:16.344Z,99559.88
2023-08-01T18:12:48.047Z,99553.63
2023-08-01T18:15:15.790Z,99561.34
2023-08-01T18:17:43.409Z,99553.91
2023-08-01T18:20:11.669Z,99543.75
2023-08-01T18:22:39.309Z,99551.66
2023-08-01T18:25:07.625Z,99548.72
2023-08-01T18:27:35.203Z,99546.47
2023-08-01T18:30:02.984Z,99545.47
2023-08-01T18:32:30.584Z,99555.63
2023-08-01T18:35:00.300Z,99547.34
2023-08-01T18:37:28.553Z,99550.63
2023-08-01T18:39:56.652Z,99542.53
2023-08-01T18:42:25.353Z,99553.56
2023-08-01T18:44:53.619Z,99549.19
2023-08-01T18:47:21.336Z,99550.22
2023-08-01T18:49:51.693Z,99549.59
2023-08-01T18:52:19.452Z,99548.16
2023-08-01T18:54:53.161Z,99545.66
2023-08-01T18:57:20.854Z,99546.31
2023-08-01T18:59:48.492Z,99546.91
2023-08-01T19:02:16.225Z,99542.97
2023-08-01T19:04:45.644Z,99534.25
2023-08-01T19:07:13.405Z,99528.41
2023-08-01T19:09:41.133Z,99529.25
2023-08-01T19:12:09.190Z,99530.88
2023-08-01T19:14:37.127Z,99525.50
2023-08-01T19:17:05.103Z,99524.69
2023-08-01T19:19:32.853Z,99529.03
2023-08-01T19:22:00.485Z,99523.00
2023-08-01T19:24:28.254Z,99521.78
2023-08-01T19:26:57.069Z,99519.91
2023-08-01T19:29:26.694Z,99517.63
2023-08-01T19:31:54.752Z,99517.84
2023-08-01T19:34:22.641Z,99515.75
2023-08-01T19:36:51.953Z,99512.59
2023-08-01T19:39:20.461Z,99512.19
2023-08-01T19:41:48.081Z,99510.31
2023-08-01T19:44:16.300Z,99513.00
2023-08-01T19:46:44.299Z,99517.75
2023-08-01T19:49:12.573Z,99502.81
2023-08-01T19:51:41.069Z,99503.00
2023-08-01T19:54:08.768Z,99495.31
2023-08-01T19:56:36.623Z,99492.44
2023-08-01T19:59:04.382Z,99479.75
2023-08-01T20:01:32.221Z,99484.72
2023-08-01T20:04:01.516Z,99479.53
2023-08-01T20:06:30.100Z,99483.03
2023-08-01T20:08:57.706Z,99482.81
2023-08-01T20:11:25.454Z,99488.41
2023-08-01T20:13:53.097Z,99485.50
2023-08-01T20:16:21.197Z,99489.44
2023-08-01T20:18:48.826Z,99480.28
2023-08-01T20:21:16.462Z,99486.88
2023-08-01T20:23:44.060Z,99476.72
2023-08-01T20:26:11.767Z,99478.97
2023-08-01T20:28:39.452Z,99476.69
2023-08-01T20:31:07.305Z,99464.44
2023-08-01T20:33:35.676Z,99473.56
2023-08-01T20:36:03.530Z,99467.53
2023-08-01T20:38:31.155Z,99477.22
2023-08-01T20:40:58.825Z,99468.69
2023-08-01T20:43:27.675Z,99463.91
2023-08-01T20:45:57.107Z,99455.16
2023-08-01T20:48:25.154Z,99458.88
2023-08-01T20:50:52.850Z,99455.50
2023-08-01T20:53:20.610Z,99454.03
2023-08-01T20:55:48.295Z,99445.13
2023-08-01T20:58:18.870Z,99451.13
2023-08-01T21:00:47.199Z,99440.91
2023-08-01T21:03:15.065Z,99444.63
2023-08-01T21:05:42.719Z,99433.38
2023-08-01T21:08:10.287Z,99438.72
2023-08-01T21:10:37.957Z,99433.72
2023-08-01T21:13:05.949Z,99441.78
2023-08-01T21:15:33.596Z,99437.44
2023-08-01T21:18:01.489Z,99433.28
2023-08-01T21:20:29.227Z,99432.44
2023-08-01T21:22:56.808Z,99433.28
2023-08-01T21:25:24.489Z,99425.81
2023-08-01T21:27:52.648Z,99417.75
2023-08-01T21:30:20.240Z,99415.06
2023-08-01T21:32:48.197Z,99411.34
2023-08-01T21:35:17.592Z,99410.72
2023-08-01T21:37:45.279Z,99400.34
2023-08-01T21:40:13.015Z,99403.25
2023-08-01T21:42:40.575Z,99400.56
2023-08-01T21:45:09.085Z,99395.16
2023-08-01T21:47:36.764Z,99392.47
2023-08-01T21:50:04.711Z,99384.41
2023-08-01T21:52:32.454Z,99387.91
2023-08-01T21:55:00.137Z,99388.31
2023-08-01T21:57:27.745Z,99387.22
2023-08-01T21:59:56.449Z,99383.28
2023-08-01T22:02:24.254Z,99379.94
2023-08-01T22:04:51.970Z,99370.88
2023-08-01T22:07:19.582Z,99361.34
2023-08-01T22:09:47.375Z,99366.75
2023-08-01T22:12:14.993Z,99364.69
2023-08-01T22:14:42.604Z,99360.31
2023-08-01T22:17:10.316Z,99357.00
2023-08-01T22:19:37.992Z,99353.47
2023-08-01T22:22:05.888Z,99343.75
2023-08-01T22:24:34.138Z,99344.56
2023-08-01T22:27:01.719Z,99348.31
2023-08-01T22:29:29.653Z,99343.97
2023-08-01T22:31:57.446Z,99337.53
2023-08-01T22:34:26.172Z,99331.31
2023-08-01T22:36:53.786Z,99330.69
2023-08-01T22:39:21.404Z,99328.81
2023-08-01T22:41:49.011Z,99333.81
2023-08-01T22:44:16.585Z,99321.34
2023-08-01T22:46:44.645Z,99315.53
2023-08-01T22:49:12.670Z,99313.47
2023-08-01T22:51:40.451Z,99312.06
2023-08-01T22:54:10.163Z,99306.28
2023-08-01T22:56:37.906Z,99304.22
2023-08-01T22:59:05.559Z,99295.97
2023-08-01T23:01:33.423Z,99295.75
2023-08-01T23:04:01.703Z,99286.84
2023-08-01T23:11:44.856Z,99271.53
2023-08-01T23:15:08.714Z,99265.94
2023-08-01T23:18:01.543Z,99259.88
2023-08-01T23:20:29.421Z,99263.59
2023-08-01T23:22:57.004Z,99257.94
2023-08-01T23:25:24.605Z,99257.31
2023-08-01T23:27:54.954Z,99258.72
2023-08-01T23:30:22.586Z,99253.56
2023-08-01T23:32:53.837Z,99247.53
2023-08-01T23:35:21.706Z,99249.41
2023-08-01T23:37:50.925Z,99243.78
2023-08-01T23:40:19.742Z,99251.41
2023-08-01T23:42:48.184Z,99245.22
2023-08-01T23:45:15.806Z,99241.47
2023-08-01T23:47:43.471Z,99243.34
2023-08-01T23:50:11.065Z,99239.66
2023-08-01T23:52:38.617Z,99225.34
2023-08-01T23:55:06.543Z,99222.03
2023-08-01T23:57:34.054Z,99232.81
